sensor_id;sensor_type;location;lat;lon;timestamp;P1;durP1;ratioP1;P2;durP2;ratioP2
11100;SDS011;5604;50.722;7.078;2023-05-29T00:01:48;7.30;;;4.60;;
11100;SDS011;5604;50.722;7.078;2023-05-29T00:04:16;7.67;;;4.60;;
11100;SDS011;5604;50.722;7.078;2023-05-29T00:06:44;8.17;;;4.33;;
11100;SDS011;5604;50.722;7.078;2023-05-29T00:09:12;8.50;;;4.80;;
11100;SDS011;5604;50.722;7.078;2023-05-29T00:11:41;9.73;;;4.80;;
11100;SDS011;5604;50.722;7.078;2023-05-29T00:14:09;8.37;;;4.50;;
11100;SDS011;5604;50.722;7.078;2023-05-29T00:16:40;10.33;;;4.83;;
11100;SDS011;5604;50.722;7.078;2023-05-29T00:19:12;9.70;;;5.10;;
11100;SDS011;5604;50.722;7.078;2023-05-29T00:21:40;6.43;;;4.13;;
11100;SDS011;5604;50.722;7.078;2023-05-29T00:24:08;9.33;;;5.07;;
11100;SDS011;5604;50.722;7.078;2023-05-29T00:26:36;7.57;;;4.20;;
11100;SDS011;5604;50.722;7.078;2023-05-29T00:29:05;7.17;;;4.30;;
11100;SDS011;5604;50.722;7.078;2023-05-29T00:31:33;6.67;;;5.00;;
11100;SDS011;5604;50.722;7.078;2023-05-29T00:34:02;8.83;;;5.03;;
11100;SDS011;5604;50.722;7.078;2023-05-29T00:36:31;7.20;;;4.97;;
11100;SDS011;5604;50.722;7.078;2023-05-29T00:39:00;8.43;;;4.60;;
11100;SDS011;5604;50.722;7.078;2023-05-29T00:41:29;6.53;;;5.13;;
11100;SDS011;5604;50.722;7.078;2023-05-29T00:43:57;7.67;;;5.13;;
11100;SDS011;5604;50.722;7.078;2023-05-29T00:46:25;8.17;;;4.73;;
11100;SDS011;5604;50.722;7.078;2023-05-29T00:48:53;7.63;;;5.10;;
11100;SDS011;5604;50.722;7.078;2023-05-29T00:51:22;8.47;;;4.67;;
11100;SDS011;5604;50.722;7.078;2023-05-29T00:53:51;7.17;;;4.90;;
11100;SDS011;5604;50.722;7.078;2023-05-29T00:56:20;10.67;;;5.27;;
11100;SDS011;5604;50.722;7.078;2023-05-29T00:58:49;7.37;;;4.50;;
11100;SDS011;5604;50.722;7.078;2023-05-29T01:01:18;8.53;;;4.90;;
11100;SDS011;5604;50.722;7.078;2023-05-29T01:03:47;8.90;;;4.53;;
11100;SDS011;5604;50.722;7.078;2023-05-29T01:06:16;8.27;;;4.40;;
11100;SDS011;5604;50.722;7.078;2023-05-29T01:08:44;7.63;;;4.80;;
11100;SDS011;5604;50.722;7.078;2023-05-29T01:11:17;9.27;;;5.30;;
11100;SDS011;5604;50.722;7.078;2023-05-29T01:13:49;8.07;;;4.60;;
11100;SDS011;5604;50.722;7.078;2023-05-29T01:16:19;8.60;;;4.83;;
11100;SDS011;5604;50.722;7.078;2023-05-29T01:18:54;6.23;;;4.30;;
11100;SDS011;5604;50.722;7.078;2023-05-29T01:21:27;10.57;;;5.00;;
11100;SDS011;5604;50.722;7.078;2023-05-29T01:24:03;10.23;;;4.97;;
11100;SDS011;5604;50.722;7.078;2023-05-29T01:26:45;8.83;;;5.17;;
11100;SDS011;5604;50.722;7.078;2023-05-29T01:29:15;10.60;;;4.97;;
11100;SDS011;5604;50.722;7.078;2023-05-29T01:31:48;8.77;;;4.50;;
11100;SDS011;5604;50.722;7.078;2023-05-29T01:34:17;7.00;;;4.77;;
11100;SDS011;5604;50.722;7.078;2023-05-29T01:36:45;7.70;;;4.57;;
11100;SDS011;5604;50.722;7.078;2023-05-29T01:39:13;5.37;;;4.60;;
11100;SDS011;5604;50.722;7.078;2023-05-29T01:41:42;6.47;;;4.93;;
11100;SDS011;5604;50.722;7.078;2023-05-29T01:44:12;6.60;;;4.43;;
11100;SDS011;5604;50.722;7.078;2023-05-29T01:46:41;9.07;;;5.00;;
11100;SDS011;5604;50.722;7.078;2023-05-29T01:49:09;10.13;;;4.67;;
11100;SDS011;5604;50.722;7.078;2023-05-29T01:51:39;14.07;;;5.20;;
11100;SDS011;5604;50.722;7.078;2023-05-29T01:54:07;6.33;;;4.30;;
11100;SDS011;5604;50.722;7.078;2023-05-29T01:56:35;6.63;;;4.73;;
11100;SDS011;5604;50.722;7.078;2023-05-29T01:59:05;10.23;;;4.93;;
11100;SDS011;5604;50.722;7.078;2023-05-29T02:01:33;7.60;;;4.60;;
11100;SDS011;5604;50.722;7.078;2023-05-29T02:04:02;10.93;;;4.90;;
11100;SDS011;5604;50.722;7.078;2023-05-29T02:06:30;7.80;;;5.07;;
11100;SDS011;5604;50.722;7.078;2023-05-29T02:08:59;8.67;;;5.03;;
11100;SDS011;5604;50.722;7.078;2023-05-29T02:11:27;6.53;;;4.43;;
11100;SDS011;5604;50.722;7.078;2023-05-29T02:13:55;10.43;;;5.23;;
11100;SDS011;5604;50.722;7.078;2023-05-29T02:16:25;7.27;;;4.97;;
11100;SDS011;5604;50.722;7.078;2023-05-29T02:18:55;7.80;;;5.27;;
11100;SDS011;5604;50.722;7.078;2023-05-29T02:21:23;6.60;;;5.17;;
11100;SDS011;5604;50.722;7.078;2023-05-29T02:23:51;9.10;;;4.83;;
11100;SDS011;5604;50.722;7.078;2023-05-29T02:26:20;7.57;;;4.67;;
11100;SDS011;5604;50.722;7.078;2023-05-29T02:28:49;7.17;;;4.30;;
11100;SDS011;5604;50.722;7.078;2023-05-29T02:31:19;8.30;;;4.90;;
11100;SDS011;5604;50.722;7.078;2023-05-29T02:33:48;9.83;;;4.57;;
11100;SDS011;5604;50.722;7.078;2023-05-29T02:36:16;7.47;;;4.80;;
11100;SDS011;5604;50.722;7.078;2023-05-29T02:38:44;9.30;;;4.97;;
11100;SDS011;5604;50.722;7.078;2023-05-29T02:41:12;8.20;;;4.47;;
11100;SDS011;5604;50.722;7.078;2023-05-29T02:43:41;8.17;;;4.43;;
11100;SDS011;5604;50.722;7.078;2023-05-29T02:46:08;8.90;;;4.40;;
11100;SDS011;5604;50.722;7.078;2023-05-29T02:48:37;7.20;;;4.30;;
11100;SDS011;5604;50.722;7.078;2023-05-29T02:51:06;5.10;;;4.07;;
11100;SDS011;5604;50.722;7.078;2023-05-29T02:53:34;8.03;;;4.93;;
11100;SDS011;5604;50.722;7.078;2023-05-29T02:56:02;7.73;;;4.17;;
11100;SDS011;5604;50.722;7.078;2023-05-29T02:58:30;8.03;;;4.50;;
11100;SDS011;5604;50.722;7.078;2023-05-29T03:00:59;9.00;;;4.90;;
11100;SDS011;5604;50.722;7.078;2023-05-29T03:03:29;6.50;;;4.60;;
11100;SDS011;5604;50.722;7.078;2023-05-29T03:05:57;8.67;;;4.80;;
11100;SDS011;5604;50.722;7.078;2023-05-29T03:08:26;5.93;;;4.27;;
11100;SDS011;5604;50.722;7.078;2023-05-29T03:10:55;7.90;;;4.37;;
11100;SDS011;5604;50.722;7.078;2023-05-29T03:13:23;7.57;;;4.63;;
11100;SDS011;5604;50.722;7.078;2023-05-29T03:15:59;12.27;;;4.87;;
11100;SDS011;5604;50.722;7.078;2023-05-29T03:18:27;6.23;;;4.07;;
11100;SDS011;5604;50.722;7.078;2023-05-29T03:20:56;7.53;;;4.13;;
11100;SDS011;5604;50.722;7.078;2023-05-29T03:23:24;7.20;;;5.63;;
11100;SDS011;5604;50.722;7.078;2023-05-29T03:25:54;7.50;;;4.40;;
11100;SDS011;5604;50.722;7.078;2023-05-29T03:28:23;8.63;;;4.57;;
11100;SDS011;5604;50.722;7.078;2023-05-29T03:30:52;8.70;;;4.43;;
11100;SDS011;5604;50.722;7.078;2023-05-29T03:33:22;6.87;;;4.57;;
11100;SDS011;5604;50.722;7.078;2023-05-29T03:36:06;4.47;;;3.83;;
11100;SDS011;5604;50.722;7.078;2023-05-29T03:38:35;5.77;;;4.13;;
11100;SDS011;5604;50.722;7.078;2023-05-29T03:41:04;6.03;;;4.53;;
11100;SDS011;5604;50.722;7.078;2023-05-29T03:43:32;8.07;;;5.00;;
11100;SDS011;5604;50.722;7.078;2023-05-29T03:46:00;6.67;;;4.73;;
11100;SDS011;5604;50.722;7.078;2023-05-29T03:48:30;7.93;;;4.00;;
11100;SDS011;5604;50.722;7.078;2023-05-29T03:50:58;5.50;;;4.70;;
11100;SDS011;5604;50.722;7.078;2023-05-29T03:53:31;7.53;;;4.90;;
11100;SDS011;5604;50.722;7.078;2023-05-29T03:55:59;4.97;;;4.23;;
11100;SDS011;5604;50.722;7.078;2023-05-29T03:58:29;7.33;;;4.77;;
11100;SDS011;5604;50.722;7.078;2023-05-29T04:00:58;5.47;;;4.40;;
11100;SDS011;5604;50.722;7.078;2023-05-29T04:03:28;6.13;;;4.50;;
11100;SDS011;5604;50.722;7.078;2023-05-29T04:05:57;4.97;;;4.30;;
11100;SDS011;5604;50.722;7.078;2023-05-29T04:08:26;9.53;;;4.93;;
11100;SDS011;5604;50.722;7.078;2023-05-29T04:10:54;7.43;;;4.47;;
11100;SDS011;5604;50.722;7.078;2023-05-29T04:13:22;8.23;;;6.17;;
11100;SDS011;5604;50.722;7.078;2023-05-29T04:15:51;7.50;;;4.73;;
11100;SDS011;5604;50.722;7.078;2023-05-29T04:18:21;9.10;;;4.97;;
11100;SDS011;5604;50.722;7.078;2023-05-29T04:20:49;6.73;;;4.40;;
11100;SDS011;5604;50.722;7.078;2023-05-29T04:23:17;7.47;;;4.27;;
11100;SDS011;5604;50.722;7.078;2023-05-29T04:25:45;7.10;;;4.60;;
11100;SDS011;5604;50.722;7.078;2023-05-29T04:28:19;7.53;;;4.77;;
11100;SDS011;5604;50.722;7.078;2023-05-29T04:30:48;7.70;;;4.63;;
11100;SDS011;5604;50.722;7.078;2023-05-29T04:33:19;7.70;;;4.20;;
11100;SDS011;5604;50.722;7.078;2023-05-29T04:35:51;6.67;;;4.20;;
11100;SDS011;5604;50.722;7.078;2023-05-29T04:38:19;7.70;;;4.60;;
11100;SDS011;5604;50.722;7.078;2023-05-29T04:40:53;5.87;;;4.10;;
11100;SDS011;5604;50.722;7.078;2023-05-29T04:43:25;8.87;;;4.70;;
11100;SDS011;5604;50.722;7.078;2023-05-29T04:46:01;7.43;;;4.17;;
11100;SDS011;5604;50.722;7.078;2023-05-29T04:48:34;9.43;;;4.80;;
11100;SDS011;5604;50.722;7.078;2023-05-29T04:51:03;9.93;;;5.37;;
11100;SDS011;5604;50.722;7.078;2023-05-29T04:53:31;7.50;;;5.07;;
11100;SDS011;5604;50.722;7.078;2023-05-29T04:55:59;6.97;;;4.50;;
11100;SDS011;5604;50.722;7.078;2023-05-29T04:58:28;6.10;;;4.57;;
11100;SDS011;5604;50.722;7.078;2023-05-29T05:00:56;8.93;;;5.00;;
11100;SDS011;5604;50.722;7.078;2023-05-29T05:03:27;8.73;;;4.73;;
11100;SDS011;5604;50.722;7.078;2023-05-29T05:05:58;9.20;;;4.40;;
11100;SDS011;5604;50.722;7.078;2023-05-29T05:08:28;6.30;;;3.87;;
11100;SDS011;5604;50.722;7.078;2023-05-29T05:10:57;8.57;;;4.67;;
11100;SDS011;5604;50.722;7.078;2023-05-29T05:13:26;8.80;;;4.43;;
11100;SDS011;5604;50.722;7.078;2023-05-29T05:15:54;7.47;;;4.17;;
11100;SDS011;5604;50.722;7.078;2023-05-29T05:18:22;9.83;;;5.10;;
11100;SDS011;5604;50.722;7.078;2023-05-29T05:20:59;7.57;;;5.00;;
11100;SDS011;5604;50.722;7.078;2023-05-29T05:23:28;8.23;;;4.70;;
11100;SDS011;5604;50.722;7.078;2023-05-29T05:25:58;7.60;;;4.70;;
11100;SDS011;5604;50.722;7.078;2023-05-29T05:28:27;7.13;;;4.53;;
11100;SDS011;5604;50.722;7.078;2023-05-29T05:30:55;10.77;;;4.70;;
11100;SDS011;5604;50.722;7.078;2023-05-29T05:33:23;9.33;;;6.00;;
11100;SDS011;5604;50.722;7.078;2023-05-29T05:35:51;9.23;;;5.33;;
11100;SDS011;5604;50.722;7.078;2023-05-29T05:38:21;10.63;;;6.13;;
11100;SDS011;5604;50.722;7.078;2023-05-29T05:40:49;11.23;;;5.50;;
11100;SDS011;5604;50.722;7.078;2023-05-29T05:43:23;10.60;;;6.20;;
11100;SDS011;5604;50.722;7.078;2023-05-29T05:46:25;10.43;;;4.80;;
11100;SDS011;5604;50.722;7.078;2023-05-29T05:48:54;8.60;;;5.20;;
11100;SDS011;5604;50.722;7.078;2023-05-29T05:51:24;11.27;;;5.07;;
11100;SDS011;5604;50.722;7.078;2023-05-29T05:53:54;8.13;;;5.03;;
11100;SDS011;5604;50.722;7.078;2023-05-29T05:56:22;9.57;;;4.70;;
11100;SDS011;5604;50.722;7.078;2023-05-29T05:58:51;6.97;;;5.00;;
11100;SDS011;5604;50.722;7.078;2023-05-29T06:01:20;10.10;;;5.20;;
11100;SDS011;5604;50.722;7.078;2023-05-29T06:03:48;9.40;;;5.37;;
11100;SDS011;5604;50.722;7.078;2023-05-29T06:06:17;8.73;;;5.10;;
11100;SDS011;5604;50.722;7.078;2023-05-29T06:08:47;9.20;;;4.60;;
11100;SDS011;5604;50.722;7.078;2023-05-29T06:11:17;8.57;;;4.70;;
11100;SDS011;5604;50.722;7.078;2023-05-29T06:13:47;7.63;;;4.53;;
11100;SDS011;5604;50.722;7.078;2023-05-29T06:16:20;6.13;;;4.60;;
11100;SDS011;5604;50.722;7.078;2023-05-29T06:18:49;8.50;;;5.20;;
11100;SDS011;5604;50.722;7.078;2023-05-29T06:21:17;9.00;;;4.73;;
11100;SDS011;5604;50.722;7.078;2023-05-29T06:23:51;8.37;;;4.80;;
11100;SDS011;5604;50.722;7.078;2023-05-29T06:26:21;11.80;;;5.60;;
11100;SDS011;5604;50.722;7.078;2023-05-29T06:28:53;9.90;;;4.83;;
11100;SDS011;5604;50.722;7.078;2023-05-29T06:31:21;11.97;;;5.53;;
11100;SDS011;5604;50.722;7.078;2023-05-29T06:33:49;13.00;;;5.27;;
11100;SDS011;5604;50.722;7.078;2023-05-29T06:36:18;11.53;;;4.93;;
11100;SDS011;5604;50.722;7.078;2023-05-29T06:38:46;8.73;;;4.90;;
11100;SDS011;5604;50.722;7.078;2023-05-29T06:41:15;11.40;;;5.10;;
11100;SDS011;5604;50.722;7.078;2023-05-29T06:43:45;9.30;;;5.30;;
11100;SDS011;5604;50.722;7.078;2023-05-29T06:46:13;8.53;;;5.60;;
11100;SDS011;5604;50.722;7.078;2023-05-29T06:48:41;8.43;;;5.40;;
11100;SDS011;5604;50.722;7.078;2023-05-29T06:51:11;10.37;;;5.53;;
11100;SDS011;5604;50.722;7.078;2023-05-29T06:53:39;9.80;;;5.70;;
11100;SDS011;5604;50.722;7.078;2023-05-29T06:56:09;15.03;;;5.97;;
11100;SDS011;5604;50.722;7.078;2023-05-29T06:58:37;10.50;;;5.60;;
11100;SDS011;5604;50.722;7.078;2023-05-29T07:01:07;9.40;;;5.07;;
11100;SDS011;5604;50.722;7.078;2023-05-29T07:04:00;9.53;;;5.20;;
11100;SDS011;5604;50.722;7.078;2023-05-29T07:06:28;10.50;;;5.53;;
11100;SDS011;5604;50.722;7.078;2023-05-29T07:08:57;12.57;;;5.40;;
11100;SDS011;5604;50.722;7.078;2023-05-29T07:11:26;9.87;;;5.20;;
11100;SDS011;5604;50.722;7.078;2023-05-29T07:13:54;10.60;;;5.70;;
11100;SDS011;5604;50.722;7.078;2023-05-29T07:16:26;8.93;;;5.57;;
11100;SDS011;5604;50.722;7.078;2023-05-29T07:19:04;9.20;;;5.17;;
11100;SDS011;5604;50.722;7.078;2023-05-29T07:21:45;9.33;;;5.07;;
11100;SDS011;5604;50.722;7.078;2023-05-29T07:24:13;9.50;;;5.07;;
11100;SDS011;5604;50.722;7.078;2023-05-29T07:26:41;10.83;;;5.80;;
11100;SDS011;5604;50.722;7.078;2023-05-29T07:29:10;11.97;;;5.53;;
11100;SDS011;5604;50.722;7.078;2023-05-29T07:31:40;12.70;;;5.30;;
11100;SDS011;5604;50.722;7.078;2023-05-29T07:34:09;12.73;;;5.63;;
11100;SDS011;5604;50.722;7.078;2023-05-29T07:36:37;13.40;;;5.90;;
11100;SDS011;5604;50.722;7.078;2023-05-29T07:39:24;11.43;;;5.70;;
11100;SDS011;5604;50.722;7.078;2023-05-29T07:41:52;10.07;;;5.23;;
11100;SDS011;5604;50.722;7.078;2023-05-29T07:44:20;9.90;;;5.57;;
11100;SDS011;5604;50.722;7.078;2023-05-29T07:46:51;12.47;;;5.90;;
11100;SDS011;5604;50.722;7.078;2023-05-29T07:49:32;9.17;;;5.30;;
11100;SDS011;5604;50.722;7.078;2023-05-29T07:52:01;12.20;;;5.87;;
11100;SDS011;5604;50.722;7.078;2023-05-29T07:54:30;9.80;;;5.40;;
11100;SDS011;5604;50.722;7.078;2023-05-29T07:57:00;12.20;;;5.90;;
11100;SDS011;5604;50.722;7.078;2023-05-29T07:59:29;12.10;;;5.60;;
11100;SDS011;5604;50.722;7.078;2023-05-29T08:02:00;8.47;;;5.37;;
11100;SDS011;5604;50.722;7.078;2023-05-29T08:04:47;10.30;;;5.83;;
11100;SDS011;5604;50.722;7.078;2023-05-29T08:07:15;11.27;;;6.17;;
11100;SDS011;5604;50.722;7.078;2023-05-29T08:09:43;10.07;;;5.67;;
11100;SDS011;5604;50.722;7.078;2023-05-29T08:12:11;10.43;;;4.90;;
11100;SDS011;5604;50.722;7.078;2023-05-29T08:14:39;9.13;;;5.70;;
11100;SDS011;5604;50.722;7.078;2023-05-29T08:17:08;8.07;;;5.30;;
11100;SDS011;5604;50.722;7.078;2023-05-29T08:19:36;11.53;;;5.63;;
11100;SDS011;5604;50.722;7.078;2023-05-29T08:22:04;11.03;;;4.53;;
11100;SDS011;5604;50.722;7.078;2023-05-29T08:24:32;13.90;;;5.10;;
11100;SDS011;5604;50.722;7.078;2023-05-29T08:27:01;12.63;;;5.60;;
11100;SDS011;5604;50.722;7.078;2023-05-29T08:29:29;11.00;;;5.20;;
11100;SDS011;5604;50.722;7.078;2023-05-29T08:31:57;12.33;;;5.73;;
11100;SDS011;5604;50.722;7.078;2023-05-29T08:34:26;9.80;;;5.27;;
11100;SDS011;5604;50.722;7.078;2023-05-29T08:36:54;10.17;;;5.30;;
11100;SDS011;5604;50.722;7.078;2023-05-29T08:39:22;11.40;;;5.23;;
11100;SDS011;5604;50.722;7.078;2023-05-29T08:41:51;9.40;;;4.97;;
11100;SDS011;5604;50.722;7.078;2023-05-29T08:44:26;11.73;;;5.40;;
11100;SDS011;5604;50.722;7.078;2023-05-29T08:46:57;10.47;;;5.30;;
11100;SDS011;5604;50.722;7.078;2023-05-29T08:49:32;10.30;;;5.27;;
11100;SDS011;5604;50.722;7.078;2023-05-29T08:52:09;10.43;;;4.77;;
11100;SDS011;5604;50.722;7.078;2023-05-29T08:54:37;9.23;;;4.83;;
11100;SDS011;5604;50.722;7.078;2023-05-29T08:57:06;11.17;;;5.30;;
11100;SDS011;5604;50.722;7.078;2023-05-29T08:59:34;10.03;;;5.40;;
11100;SDS011;5604;50.722;7.078;2023-05-29T09:02:02;12.10;;;5.60;;
11100;SDS011;5604;50.722;7.078;2023-05-29T09:04:32;8.57;;;4.73;;
11100;SDS011;5604;50.722;7.078;2023-05-29T09:07:00;7.97;;;4.73;;
11100;SDS011;5604;50.722;7.078;2023-05-29T09:09:29;10.60;;;4.87;;
11100;SDS011;5604;50.722;7.078;2023-05-29T09:11:58;8.77;;;4.70;;
11100;SDS011;5604;50.722;7.078;2023-05-29T09:14:33;14.17;;;5.23;;
11100;SDS011;5604;50.722;7.078;2023-05-29T09:17:04;9.87;;;4.30;;
11100;SDS011;5604;50.722;7.078;2023-05-29T09:19:36;11.23;;;4.30;;
11100;SDS011;5604;50.722;7.078;2023-05-29T09:22:07;11.97;;;4.17;;
11100;SDS011;5604;50.722;7.078;2023-05-29T09:24:39;9.37;;;4.70;;
11100;SDS011;5604;50.722;7.078;2023-05-29T09:27:08;9.47;;;4.40;;
11100;SDS011;5604;50.722;7.078;2023-05-29T09:29:38;10.70;;;4.20;;
11100;SDS011;5604;50.722;7.078;2023-05-29T09:32:08;9.83;;;5.03;;
11100;SDS011;5604;50.722;7.078;2023-05-29T09:34:38;10.00;;;4.17;;
11100;SDS011;5604;50.722;7.078;2023-05-29T09:37:08;8.90;;;4.17;;
11100;SDS011;5604;50.722;7.078;2023-05-29T09:39:44;8.70;;;4.23;;
11100;SDS011;5604;50.722;7.078;2023-05-29T09:42:13;10.10;;;4.30;;
11100;SDS011;5604;50.722;7.078;2023-05-29T09:44:43;7.73;;;4.13;;
11100;SDS011;5604;50.722;7.078;2023-05-29T09:47:20;7.27;;;4.07;;
11100;SDS011;5604;50.722;7.078;2023-05-29T09:49:50;8.20;;;4.20;;
11100;SDS011;5604;50.722;7.078;2023-05-29T09:52:20;9.77;;;3.80;;
11100;SDS011;5604;50.722;7.078;2023-05-29T09:54:49;9.47;;;4.43;;
11100;SDS011;5604;50.722;7.078;2023-05-29T09:57:18;9.47;;;3.80;;
11100;SDS011;5604;50.722;7.078;2023-05-29T09:59:47;6.93;;;3.90;;
11100;SDS011;5604;50.722;7.078;2023-05-29T10:02:18;6.00;;;4.03;;
11100;SDS011;5604;50.722;7.078;2023-05-29T10:04:47;9.40;;;4.27;;
11100;SDS011;5604;50.722;7.078;2023-05-29T10:07:20;11.13;;;4.60;;
11100;SDS011;5604;50.722;7.078;2023-05-29T10:09:59;8.47;;;4.13;;
11100;SDS011;5604;50.722;7.078;2023-05-29T10:12:30;6.40;;;3.70;;
11100;SDS011;5604;50.722;7.078;2023-05-29T10:15:00;11.60;;;4.47;;
11100;SDS011;5604;50.722;7.078;2023-05-29T10:17:32;12.90;;;4.33;;
11100;SDS011;5604;50.722;7.078;2023-05-29T10:20:01;8.70;;;4.23;;
11100;SDS011;5604;50.722;7.078;2023-05-29T10:22:34;9.97;;;4.47;;
11100;SDS011;5604;50.722;7.078;2023-05-29T10:25:07;8.97;;;4.40;;
11100;SDS011;5604;50.722;7.078;2023-05-29T10:27:39;7.87;;;3.60;;
11100;SDS011;5604;50.722;7.078;2023-05-29T10:30:09;9.90;;;4.07;;
11100;SDS011;5604;50.722;7.078;2023-05-29T10:32:41;8.63;;;4.13;;
11100;SDS011;5604;50.722;7.078;2023-05-29T10:35:16;7.47;;;4.00;;
11100;SDS011;5604;50.722;7.078;2023-05-29T10:37:49;7.20;;;3.60;;
11100;SDS011;5604;50.722;7.078;2023-05-29T10:40:22;11.77;;;3.67;;
11100;SDS011;5604;50.722;7.078;2023-05-29T10:42:52;8.57;;;4.00;;
11100;SDS011;5604;50.722;7.078;2023-05-29T10:45:48;8.10;;;3.80;;
11100;SDS011;5604;50.722;7.078;2023-05-29T10:48:35;8.50;;;3.97;;
11100;SDS011;5604;50.722;7.078;2023-05-29T10:51:07;8.77;;;3.60;;
11100;SDS011;5604;50.722;7.078;2023-05-29T10:53:38;11.77;;;4.40;;
11100;SDS011;5604;50.722;7.078;2023-05-29T10:56:11;9.27;;;3.30;;
11100;SDS011;5604;50.722;7.078;2023-05-29T10:58:43;7.17;;;3.53;;
11100;SDS011;5604;50.722;7.078;2023-05-29T11:01:12;9.63;;;4.00;;
11100;SDS011;5604;50.722;7.078;2023-05-29T11:03:40;8.07;;;4.13;;
11100;SDS011;5604;50.722;7.078;2023-05-29T11:06:18;8.30;;;3.90;;
11100;SDS011;5604;50.722;7.078;2023-05-29T11:08:53;8.33;;;3.70;;
11100;SDS011;5604;50.722;7.078;2023-05-29T11:11:29;8.83;;;3.80;;
11100;SDS011;5604;50.722;7.078;2023-05-29T11:14:00;8.17;;;3.90;;
11100;SDS011;5604;50.722;7.078;2023-05-29T11:16:37;7.77;;;3.87;;
11100;SDS011;5604;50.722;7.078;2023-05-29T11:19:05;9.20;;;3.90;;
11100;SDS011;5604;50.722;7.078;2023-05-29T11:21:44;9.17;;;3.60;;
11100;SDS011;5604;50.722;7.078;2023-05-29T11:24:21;9.10;;;4.07;;
11100;SDS011;5604;50.722;7.078;2023-05-29T11:26:50;9.20;;;3.60;;
11100;SDS011;5604;50.722;7.078;2023-05-29T11:29:21;8.93;;;3.90;;
11100;SDS011;5604;50.722;7.078;2023-05-29T11:31:53;10.67;;;4.00;;
11100;SDS011;5604;50.722;7.078;2023-05-29T11:34:27;6.87;;;3.27;;
11100;SDS011;5604;50.722;7.078;2023-05-29T11:36:57;11.00;;;3.30;;
11100;SDS011;5604;50.722;7.078;2023-05-29T11:39:26;7.63;;;3.50;;
11100;SDS011;5604;50.722;7.078;2023-05-29T11:41:55;10.93;;;3.73;;
11100;SDS011;5604;50.722;7.078;2023-05-29T11:44:23;7.20;;;3.57;;
11100;SDS011;5604;50.722;7.078;2023-05-29T11:46:59;9.00;;;3.70;;
11100;SDS011;5604;50.722;7.078;2023-05-29T11:49:28;10.30;;;3.90;;
11100;SDS011;5604;50.722;7.078;2023-05-29T11:52:05;10.53;;;3.50;;
11100;SDS011;5604;50.722;7.078;2023-05-29T11:54:43;8.27;;;4.00;;
11100;SDS011;5604;50.722;7.078;2023-05-29T11:57:18;9.87;;;3.70;;
11100;SDS011;5604;50.722;7.078;2023-05-29T11:59:47;9.63;;;3.50;;
11100;SDS011;5604;50.722;7.078;2023-05-29T12:02:15;8.00;;;3.60;;
11100;SDS011;5604;50.722;7.078;2023-05-29T12:04:43;8.47;;;4.00;;
11100;SDS011;5604;50.722;7.078;2023-05-29T12:07:16;8.17;;;3.83;;
11100;SDS011;5604;50.722;7.078;2023-05-29T12:09:46;8.23;;;3.23;;
11100;SDS011;5604;50.722;7.078;2023-05-29T12:12:19;9.60;;;3.93;;
11100;SDS011;5604;50.722;7.078;2023-05-29T12:14:49;8.97;;;3.57;;
11100;SDS011;5604;50.722;7.078;2023-05-29T12:17:18;8.13;;;3.47;;
11100;SDS011;5604;50.722;7.078;2023-05-29T12:19:46;8.57;;;3.63;;
11100;SDS011;5604;50.722;7.078;2023-05-29T12:22:14;8.20;;;3.67;;
11100;SDS011;5604;50.722;7.078;2023-05-29T12:24:42;7.97;;;3.37;;
11100;SDS011;5604;50.722;7.078;2023-05-29T12:27:11;8.40;;;3.40;;
11100;SDS011;5604;50.722;7.078;2023-05-29T12:29:40;7.87;;;3.63;;
11100;SDS011;5604;50.722;7.078;2023-05-29T12:32:09;10.37;;;3.80;;
11100;SDS011;5604;50.722;7.078;2023-05-29T12:34:37;8.43;;;2.90;;
11100;SDS011;5604;50.722;7.078;2023-05-29T12:37:07;7.70;;;2.93;;
11100;SDS011;5604;50.722;7.078;2023-05-29T12:39:39;8.60;;;3.90;;
11100;SDS011;5604;50.722;7.078;2023-05-29T12:42:07;8.83;;;3.67;;
11100;SDS011;5604;50.722;7.078;2023-05-29T12:44:38;6.80;;;3.37;;
11100;SDS011;5604;50.722;7.078;2023-05-29T12:47:06;6.67;;;3.43;;
11100;SDS011;5604;50.722;7.078;2023-05-29T12:49:35;10.50;;;3.30;;
11100;SDS011;5604;50.722;7.078;2023-05-29T12:52:08;8.20;;;3.90;;
11100;SDS011;5604;50.722;7.078;2023-05-29T12:54:38;6.60;;;3.10;;
11100;SDS011;5604;50.722;7.078;2023-05-29T12:57:06;9.57;;;3.83;;
11100;SDS011;5604;50.722;7.078;2023-05-29T12:59:34;5.80;;;3.60;;
11100;SDS011;5604;50.722;7.078;2023-05-29T13:02:04;6.47;;;3.40;;
11100;SDS011;5604;50.722;7.078;2023-05-29T13:04:34;8.77;;;3.70;;
11100;SDS011;5604;50.722;7.078;2023-05-29T13:07:03;5.77;;;3.20;;
11100;SDS011;5604;50.722;7.078;2023-05-29T13:09:31;8.90;;;3.33;;
11100;SDS011;5604;50.722;7.078;2023-05-29T13:11:59;12.23;;;3.80;;
11100;SDS011;5604;50.722;7.078;2023-05-29T13:14:28;7.63;;;3.17;;
11100;SDS011;5604;50.722;7.078;2023-05-29T13:16:55;5.77;;;3.07;;
11100;SDS011;5604;50.722;7.078;2023-05-29T13:19:25;7.67;;;3.60;;
11100;SDS011;5604;50.722;7.078;2023-05-29T13:21:53;7.93;;;4.03;;
11100;SDS011;5604;50.722;7.078;2023-05-29T13:24:21;7.77;;;3.40;;
11100;SDS011;5604;50.722;7.078;2023-05-29T13:26:49;7.97;;;3.27;;
11100;SDS011;5604;50.722;7.078;2023-05-29T13:29:18;10.17;;;3.90;;
11100;SDS011;5604;50.722;7.078;2023-05-29T13:31:46;6.97;;;3.73;;
11100;SDS011;5604;50.722;7.078;2023-05-29T13:34:14;6.23;;;3.27;;
11100;SDS011;5604;50.722;7.078;2023-05-29T13:36:43;8.93;;;3.70;;
11100;SDS011;5604;50.722;7.078;2023-05-29T13:39:14;6.50;;;3.40;;
11100;SDS011;5604;50.722;7.078;2023-05-29T13:41:42;7.80;;;3.63;;
11100;SDS011;5604;50.722;7.078;2023-05-29T13:44:10;7.47;;;4.23;;
11100;SDS011;5604;50.722;7.078;2023-05-29T13:46:41;8.53;;;3.50;;
11100;SDS011;5604;50.722;7.078;2023-05-29T13:49:09;7.57;;;3.57;;
11100;SDS011;5604;50.722;7.078;2023-05-29T13:51:37;9.00;;;3.40;;
11100;SDS011;5604;50.722;7.078;2023-05-29T13:54:07;5.77;;;3.43;;
11100;SDS011;5604;50.722;7.078;2023-05-29T13:56:35;8.37;;;3.50;;
11100;SDS011;5604;50.722;7.078;2023-05-29T13:59:03;9.83;;;3.67;;
11100;SDS011;5604;50.722;7.078;2023-05-29T14:01:32;7.30;;;3.40;;
11100;SDS011;5604;50.722;7.078;2023-05-29T14:04:01;8.50;;;3.60;;
11100;SDS011;5604;50.722;7.078;2023-05-29T14:06:29;5.57;;;3.17;;
11100;SDS011;5604;50.722;7.078;2023-05-29T14:08:59;10.07;;;3.43;;
11100;SDS011;5604;50.722;7.078;2023-05-29T14:11:29;9.03;;;4.60;;
11100;SDS011;5604;50.722;7.078;2023-05-29T14:13:57;8.77;;;3.33;;
11100;SDS011;5604;50.722;7.078;2023-05-29T14:16:25;9.37;;;3.50;;
11100;SDS011;5604;50.722;7.078;2023-05-29T14:18:54;8.33;;;3.97;;
11100;SDS011;5604;50.722;7.078;2023-05-29T14:21:22;8.87;;;3.73;;
11100;SDS011;5604;50.722;7.078;2023-05-29T14:23:50;4.57;;;2.90;;
11100;SDS011;5604;50.722;7.078;2023-05-29T14:26:18;8.07;;;3.40;;
11100;SDS011;5604;50.722;7.078;2023-05-29T14:28:48;6.20;;;3.30;;
11100;SDS011;5604;50.722;7.078;2023-05-29T14:31:24;8.53;;;3.17;;
11100;SDS011;5604;50.722;7.078;2023-05-29T14:33:53;9.47;;;3.30;;
11100;SDS011;5604;50.722;7.078;2023-05-29T14:36:21;6.30;;;3.17;;
11100;SDS011;5604;50.722;7.078;2023-05-29T14:38:51;9.13;;;3.37;;
11100;SDS011;5604;50.722;7.078;2023-05-29T14:41:19;6.10;;;2.83;;
11100;SDS011;5604;50.722;7.078;2023-05-29T14:43:48;6.87;;;3.53;;
11100;SDS011;5604;50.722;7.078;2023-05-29T14:46:17;6.30;;;3.07;;
11100;SDS011;5604;50.722;7.078;2023-05-29T14:48:45;5.50;;;3.00;;
11100;SDS011;5604;50.722;7.078;2023-05-29T14:51:15;9.13;;;2.97;;
11100;SDS011;5604;50.722;7.078;2023-05-29T14:53:45;6.87;;;3.33;;
11100;SDS011;5604;50.722;7.078;2023-05-29T14:56:15;10.20;;;3.60;;
11100;SDS011;5604;50.722;7.078;2023-05-29T14:58:44;7.27;;;2.87;;
11100;SDS011;5604;50.722;7.078;2023-05-29T15:01:16;8.33;;;4.00;;
11100;SDS011;5604;50.722;7.078;2023-05-29T15:04:21;7.53;;;3.37;;
11100;SDS011;5604;50.722;7.078;2023-05-29T15:06:56;8.80;;;3.00;;
11100;SDS011;5604;50.722;7.078;2023-05-29T15:12:45;8.67;;;3.27;;
11100;SDS011;5604;50.722;7.078;2023-05-29T15:15:13;7.10;;;3.30;;
11100;SDS011;5604;50.722;7.078;2023-05-29T15:17:42;5.03;;;2.90;;
11100;SDS011;5604;50.722;7.078;2023-05-29T15:20:53;8.17;;;3.30;;